Bentley, Mississippi
Current Conditions -  °F | °C
As of 12:15 PM on Thursday 27 Nov 2014 (Local Time) from KSTF Reporting Station
Overcast Overcast  
Wind Chill: 39°   Ceiling: 2800
Heat Index: 43°   Visibility: NA
Dew Point: 32°   Wind: 6mph
Humidity: 66%   Direction: 350°N
Pressure: 30.46"   Gusts: NA
Location:  33.6711°N, 89.1329°W
Report Text: KSTF 271815Z AUTO 35005KT OVC028 06/00 A3046 RMK AO2 PWINO
Loading
Personal Weather Stations






























Interactive Weather Map New forecast layout! Learn more

10-Day Weather Forecast

Advertisements
Track Severe Weather on mobile